createdAt,value
2022-12-19T00:01:58.800Z,17.73
2022-12-19T00:04:26.843Z,17.70
2022-12-19T00:06:55.033Z,17.70
2022-12-19T00:09:22.930Z,17.69
2022-12-19T00:11:50.858Z,17.67
2022-12-19T00:14:18.791Z,17.67
2022-12-19T00:16:48.108Z,17.68
2022-12-19T00:19:16.054Z,17.65
2022-12-19T00:21:43.924Z,17.66
2022-12-19T00:24:21.133Z,17.66
2022-12-19T00:26:49.730Z,17.67
2022-12-19T00:29:17.672Z,17.66
2022-12-19T00:31:47.018Z,17.66
2022-12-19T00:34:15.519Z,17.66
2022-12-19T00:36:43.389Z,17.68
2022-12-19T00:39:11.822Z,17.67
2022-12-19T00:41:42.130Z,17.68
2022-12-19T00:44:11.665Z,17.70
2022-12-19T00:46:39.591Z,17.70
2022-12-19T00:49:08.824Z,17.69
2022-12-19T00:51:37.854Z,17.72
2022-12-19T00:54:07.317Z,17.76
2022-12-19T00:56:37.724Z,17.73
2022-12-19T00:59:06.310Z,17.72
2022-12-19T01:01:35.939Z,17.72
2022-12-19T01:04:27.857Z,17.76
2022-12-19T01:06:53.552Z,17.77
2022-12-19T01:09:21.800Z,17.80
2022-12-19T01:12:07.301Z,17.79
2022-12-19T01:14:35.237Z,17.79
2022-12-19T01:17:03.138Z,17.78
2022-12-19T01:19:35.148Z,17.80
2022-12-19T01:22:07.001Z,17.81
2022-12-19T01:24:35.375Z,17.78
2022-12-19T01:27:03.261Z,17.82
2022-12-19T01:29:31.166Z,17.81
2022-12-19T01:32:01.170Z,17.80
2022-12-19T01:34:29.092Z,17.82
2022-12-19T01:36:57.035Z,17.79
2022-12-19T01:39:27.552Z,17.78
2022-12-19T01:41:58.841Z,17.77
2022-12-19T01:44:27.028Z,17.78
2022-12-19T01:46:57.545Z,17.78
2022-12-19T01:49:27.763Z,17.78
2022-12-19T01:51:56.723Z,17.79
2022-12-19T01:54:28.038Z,17.79
2022-12-19T01:56:57.015Z,17.78
2022-12-19T01:59:26.806Z,17.80
2022-12-19T02:01:56.431Z,17.77
2022-12-19T02:04:24.897Z,17.80
2022-12-19T02:06:55.190Z,17.80
2022-12-19T02:09:25.698Z,17.81
2022-12-19T02:11:54.946Z,17.79
2022-12-19T02:14:22.874Z,17.79
2022-12-19T02:16:56.564Z,17.79
2022-12-19T02:20:00.013Z,17.82
2022-12-19T02:22:29.499Z,17.79
2022-12-19T02:25:18.906Z,17.81
2022-12-19T02:28:08.834Z,17.82
2022-12-19T02:30:46.527Z,17.80
2022-12-19T02:33:17.380Z,17.83
2022-12-19T02:35:46.541Z,17.81
2022-12-19T02:38:17.379Z,17.87
2022-12-19T02:40:46.538Z,17.87
2022-12-19T02:43:17.923Z,17.91
2022-12-19T02:45:47.221Z,17.93
2022-12-19T02:48:19.242Z,17.96
2022-12-19T02:50:50.470Z,17.92
2022-12-19T02:53:23.491Z,17.93
2022-12-19T02:55:56.876Z,17.90
2022-12-19T02:58:33.823Z,17.88
2022-12-19T03:01:09.006Z,17.86
2022-12-19T03:03:41.354Z,17.85
2022-12-19T03:06:13.685Z,17.84
2022-12-19T03:08:53.439Z,17.84
2022-12-19T03:11:21.298Z,17.85
2022-12-19T03:13:51.241Z,17.86
2022-12-19T03:16:20.588Z,17.84
2022-12-19T03:18:48.492Z,17.85
2022-12-19T03:21:18.966Z,17.88
2022-12-19T03:23:46.887Z,17.87
2022-12-19T03:26:17.321Z,17.89
2022-12-19T03:28:46.764Z,17.91
2022-12-19T03:31:15.199Z,17.93
2022-12-19T03:33:44.483Z,17.92
2022-12-19T03:36:15.504Z,17.94
2022-12-19T03:38:44.717Z,17.94
2022-12-19T03:41:13.083Z,17.90
2022-12-19T03:43:39.990Z,17.96
2022-12-19T03:46:14.030Z,17.95
2022-12-19T03:48:45.335Z,17.94
2022-12-19T03:51:18.505Z,17.95
2022-12-19T03:53:50.432Z,17.98
2022-12-19T03:56:21.276Z,17.99
2022-12-19T03:58:51.081Z,18.02
2022-12-19T04:01:19.435Z,18.03
2022-12-19T04:03:48.904Z,18.05
2022-12-19T04:06:16.879Z,18.07
2022-12-19T04:08:44.771Z,18.10
2022-12-19T04:11:16.273Z,18.12
2022-12-19T04:13:45.120Z,18.10
2022-12-19T04:16:14.706Z,18.10
2022-12-19T04:18:42.924Z,18.08
2022-12-19T04:21:14.160Z,18.07
2022-12-19T04:23:43.901Z,18.10
2022-12-19T04:26:11.907Z,18.14
2022-12-19T04:28:41.642Z,18.11
2022-12-19T04:31:09.553Z,18.13
2022-12-19T04:33:37.501Z,18.05
2022-12-19T04:36:06.029Z,18.15
2022-12-19T04:38:35.325Z,18.14
2022-12-19T04:41:03.237Z,18.15
2022-12-19T04:43:31.126Z,18.19
2022-12-19T04:45:59.019Z,18.23
2022-12-19T04:48:27.058Z,18.25
2022-12-19T04:50:54.981Z,18.27
2022-12-19T04:53:22.877Z,18.29
2022-12-19T04:55:52.220Z,18.32
2022-12-19T04:58:22.075Z,18.33
2022-12-19T05:00:50.071Z,18.36
2022-12-19T05:03:17.988Z,18.31
2022-12-19T05:05:45.908Z,18.19
2022-12-19T05:08:13.774Z,18.09
2022-12-19T05:10:41.705Z,17.99
2022-12-19T05:13:11.303Z,17.92
2022-12-19T05:15:39.548Z,17.86
2022-12-19T05:18:07.480Z,17.86
2022-12-19T05:20:35.395Z,17.82
2022-12-19T05:23:06.625Z,17.77
2022-12-19T05:25:37.496Z,17.78
2022-12-19T05:28:05.791Z,17.77
2022-12-19T05:30:35.077Z,17.77
2022-12-19T05:33:02.989Z,17.80
2022-12-19T05:35:30.919Z,17.82
2022-12-19T05:37:58.814Z,17.82
2022-12-19T05:40:26.739Z,17.85
2022-12-19T05:42:54.627Z,17.88
2022-12-19T05:45:22.660Z,17.92
2022-12-19T05:47:51.929Z,17.94
2022-12-19T05:50:19.836Z,17.95
2022-12-19T05:52:47.724Z,17.98
2022-12-19T05:55:15.617Z,18.00
2022-12-19T05:57:43.518Z,18.00
2022-12-19T06:00:12.608Z,17.98
2022-12-19T06:02:40.632Z,17.96
2022-12-19T06:05:10.442Z,17.97
2022-12-19T06:07:38.741Z,18.02
2022-12-19T06:10:07.625Z,18.00
2022-12-19T06:12:35.561Z,18.03
2022-12-19T06:15:03.432Z,18.05
2022-12-19T06:17:31.469Z,18.05
2022-12-19T06:19:59.362Z,18.03
2022-12-19T06:22:28.627Z,18.03
2022-12-19T06:24:56.534Z,18.01
2022-12-19T06:27:24.436Z,18.02
2022-12-19T06:29:52.328Z,18.01
2022-12-19T06:32:20.254Z,18.01
2022-12-19T06:35:03.599Z,18.04
2022-12-19T06:37:33.614Z,18.03
2022-12-19T06:40:01.598Z,18.02
2022-12-19T06:42:28.514Z,18.00
2022-12-19T06:44:56.711Z,17.98
2022-12-19T06:47:24.789Z,18.00
2022-12-19T06:49:52.708Z,18.00
2022-12-19T06:52:20.660Z,18.03
2022-12-19T06:54:49.947Z,18.04
2022-12-19T06:57:17.827Z,18.03
2022-12-19T06:59:45.789Z,18.05
2022-12-19T07:02:22.795Z,18.07
2022-12-19T07:04:52.386Z,18.05
2022-12-19T07:07:20.573Z,18.06
2022-12-19T07:09:49.841Z,18.08
2022-12-19T07:12:17.744Z,18.09
2022-12-19T07:14:50.170Z,18.09
2022-12-19T07:17:21.001Z,18.09
2022-12-19T07:19:51.435Z,18.08
2022-12-19T07:22:19.370Z,18.10
2022-12-19T07:24:47.278Z,18.11
2022-12-19T07:27:16.690Z,18.15
2022-12-19T07:29:44.699Z,18.19
2022-12-19T07:32:12.677Z,18.17
2022-12-19T07:34:40.575Z,18.19
2022-12-19T07:37:08.614Z,18.23
2022-12-19T07:39:36.515Z,18.24
2022-12-19T07:42:04.622Z,18.26
2022-12-19T07:44:33.988Z,18.25
2022-12-19T07:47:01.909Z,18.28
2022-12-19T07:49:30.123Z,18.25
2022-12-19T07:51:58.068Z,18.25
2022-12-19T07:54:25.999Z,18.23
2022-12-19T07:56:53.907Z,18.20
2022-12-19T07:59:27.161Z,18.15
2022-12-19T08:01:59.157Z,18.15
2022-12-19T08:04:27.320Z,18.16
2022-12-19T08:06:55.204Z,18.15
2022-12-19T08:09:23.109Z,18.13
2022-12-19T08:11:50.960Z,18.12
2022-12-19T08:14:19.009Z,18.15
2022-12-19T08:17:18.642Z,18.18
2022-12-19T08:19:36.148Z,18.14
2022-12-19T08:22:04.323Z,18.12
2022-12-19T08:24:32.189Z,18.18
2022-12-19T08:27:00.137Z,18.15
2022-12-19T08:29:28.053Z,18.15
2022-12-19T08:31:55.945Z,18.11
2022-12-19T08:34:23.812Z,18.12
2022-12-19T08:36:53.215Z,18.11
2022-12-19T08:39:21.124Z,18.10
2022-12-19T08:41:49.020Z,18.08
2022-12-19T08:44:17.333Z,18.07
2022-12-19T08:46:50.040Z,18.06
2022-12-19T08:49:18.952Z,18.06
2022-12-19T08:51:47.328Z,18.05
2022-12-19T08:54:16.678Z,18.07
2022-12-19T08:56:46.618Z,18.13
2022-12-19T08:59:18.489Z,18.16
2022-12-19T09:01:58.820Z,18.16
2022-12-19T09:05:58.654Z,18.14
2022-12-19T09:07:15.714Z,18.17
2022-12-19T09:09:45.418Z,18.18
2022-12-19T09:12:13.626Z,18.17
2022-12-19T09:14:41.563Z,18.14
2022-12-19T09:17:10.115Z,18.09
2022-12-19T09:19:38.047Z,18.08
2022-12-19T09:22:06.979Z,18.08
2022-12-19T09:24:34.895Z,18.08
2022-12-19T09:27:04.164Z,18.10
2022-12-19T09:29:35.574Z,18.10
2022-12-19T09:32:03.790Z,18.11
2022-12-19T09:34:38.391Z,18.13
2022-12-19T09:37:07.721Z,18.14
2022-12-19T09:39:36.369Z,18.13
2022-12-19T09:42:41.311Z,18.10
2022-12-19T09:45:35.523Z,18.01
2022-12-19T09:48:03.438Z,17.96
2022-12-19T09:50:44.767Z,18.00
2022-12-19T09:53:17.970Z,18.07
2022-12-19T09:55:45.995Z,18.06
2022-12-19T09:58:17.582Z,18.08
2022-12-19T10:00:46.278Z,18.15
2022-12-19T10:03:19.679Z,18.17
2022-12-19T10:06:25.505Z,18.22
2022-12-19T10:08:46.298Z,18.17
2022-12-19T10:12:39.583Z,18.27
2022-12-19T10:14:34.509Z,18.29
2022-12-19T10:17:24.082Z,18.29
2022-12-19T10:20:20.441Z,18.31
2022-12-19T10:22:57.804Z,18.27
2022-12-19T10:25:41.229Z,18.27
2022-12-19T10:28:18.508Z,18.28
2022-12-19T10:30:51.065Z,18.32
2022-12-19T10:33:22.584Z,18.36
2022-12-19T10:35:54.694Z,18.36
2022-12-19T10:38:25.999Z,18.41
2022-12-19T10:40:56.367Z,18.45
2022-12-19T10:43:33.663Z,18.51
2022-12-19T10:46:16.123Z,18.54
2022-12-19T10:48:44.049Z,18.68
2022-12-19T10:51:13.863Z,18.83
2022-12-19T10:53:41.836Z,18.95
2022-12-19T10:56:14.096Z,19.09
2022-12-19T10:58:43.869Z,19.11
2022-12-19T11:01:14.554Z,19.16
2022-12-19T11:03:43.599Z,19.15
2022-12-19T11:06:43.255Z,19.13
2022-12-19T11:09:25.095Z,19.13
2022-12-19T11:16:46.275Z,19.14
2022-12-19T11:21:39.095Z,19.20
2022-12-19T11:22:16.956Z,19.21
2022-12-19T11:29:19.366Z,19.22
2022-12-19T11:30:07.043Z,19.22
2022-12-19T11:30:35.537Z,19.20
2022-12-19T11:30:45.727Z,19.19
2022-12-19T11:34:35.662Z,19.18
2022-12-19T11:37:08.122Z,19.17
2022-12-19T11:39:38.544Z,19.18
2022-12-19T11:42:09.490Z,19.16
2022-12-19T11:44:39.743Z,19.12
2022-12-19T11:47:13.347Z,19.02
2022-12-19T11:49:44.014Z,18.94
2022-12-19T11:53:01.814Z,18.83
2022-12-19T11:55:06.386Z,18.64
2022-12-19T11:57:34.295Z,18.57
2022-12-19T12:00:05.460Z,18.53
2022-12-19T12:03:05.885Z,18.54
2022-12-19T12:05:45.269Z,18.55
2022-12-19T12:10:16.185Z,18.57
2022-12-19T12:18:07.452Z,18.66
2022-12-19T12:22:18.275Z,18.73
2022-12-19T12:31:21.569Z,18.68
2022-12-19T12:31:26.003Z,18.64
2022-12-19T12:31:31.631Z,18.71
2022-12-19T12:31:50.062Z,18.82
2022-12-19T12:32:05.580Z,18.71
2022-12-19T12:35:33.434Z,18.87
2022-12-19T12:36:56.033Z,18.88
2022-12-19T12:40:55.402Z,18.82
2022-12-19T12:43:31.776Z,18.73
2022-12-19T12:45:59.705Z,18.72
2022-12-19T12:48:30.135Z,18.74
2022-12-19T12:50:58.080Z,18.75
2022-12-19T12:53:29.101Z,18.76
2022-12-19T12:55:58.448Z,18.73
2022-12-19T12:58:46.317Z,18.77
2022-12-19T13:01:17.899Z,18.77
2022-12-19T13:03:52.850Z,18.78
2022-12-19T13:06:25.973Z,18.81
2022-12-19T13:08:53.947Z,18.92
2022-12-19T13:11:55.776Z,19.06
2022-12-19T13:14:48.491Z,19.12
2022-12-19T13:17:20.072Z,19.29
2022-12-19T13:19:57.614Z,19.49
2022-12-19T13:22:40.814Z,19.55
2022-12-19T13:25:45.931Z,19.54
2022-12-19T13:28:42.558Z,19.53
2022-12-19T13:31:23.608Z,19.51
2022-12-19T13:34:19.362Z,19.46
2022-12-19T13:39:52.338Z,19.44
2022-12-19T13:39:54.295Z,19.53
2022-12-19T13:42:51.181Z,19.63
2022-12-19T13:45:26.374Z,19.55
2022-12-19T13:47:54.657Z,19.49
2022-12-19T13:50:25.025Z,19.45
2022-12-19T13:52:53.023Z,19.47
2022-12-19T13:55:21.059Z,19.51
2022-12-19T13:57:49.312Z,19.55
2022-12-19T14:00:19.153Z,19.63
2022-12-19T14:02:50.982Z,19.75
2022-12-19T14:05:33.915Z,19.80
2022-12-19T14:08:14.548Z,19.94
2022-12-19T14:11:35.579Z,20.05
2022-12-19T14:14:03.245Z,20.20
2022-12-19T14:16:43.563Z,20.30
2022-12-19T14:19:21.810Z,20.26
2022-12-19T14:22:11.900Z,20.19
2022-12-19T14:24:37.590Z,20.11
2022-12-19T14:28:19.581Z,20.12
2022-12-19T14:30:27.942Z,20.15
2022-12-19T14:33:39.753Z,20.08
2022-12-19T14:36:07.778Z,20.02
2022-12-19T14:39:25.720Z,19.97
2022-12-19T14:41:40.325Z,19.94
2022-12-19T14:52:35.073Z,19.83
2022-12-19T14:54:11.819Z,19.72
2022-12-19T14:54:16.720Z,19.65
2022-12-19T14:54:23.893Z,19.58
2022-12-19T14:56:13.011Z,19.56
2022-12-19T14:58:52.928Z,19.48
2022-12-19T15:01:24.183Z,19.42
2022-12-19T15:04:51.085Z,19.33
2022-12-19T15:07:09.331Z,19.27
2022-12-19T15:10:58.787Z,19.19
2022-12-19T15:14:50.734Z,19.13
2022-12-19T15:15:38.947Z,19.09
2022-12-19T15:18:19.455Z,19.09
2022-12-19T15:20:47.367Z,19.06
2022-12-19T15:23:21.472Z,19.03
2022-12-19T15:26:07.987Z,19.01
2022-12-19T15:28:39.933Z,19.02
2022-12-19T15:31:16.465Z,19.00
2022-12-19T15:34:14.243Z,19.04
2022-12-19T15:36:32.772Z,19.03
2022-12-19T15:39:00.723Z,19.04
2022-12-19T15:41:29.976Z,19.04
2022-12-19T15:44:05.711Z,19.02
2022-12-19T15:46:34.116Z,19.01
2022-12-19T15:49:02.374Z,18.97
2022-12-19T15:51:30.391Z,18.96
2022-12-19T15:54:15.587Z,18.94
2022-12-19T15:56:49.318Z,18.91
2022-12-19T15:59:24.345Z,18.91
2022-12-19T16:01:52.364Z,18.84
2022-12-19T16:04:20.592Z,18.85
2022-12-19T16:06:48.582Z,18.83
2022-12-19T16:09:21.190Z,18.83
2022-12-19T16:11:50.577Z,18.72
2022-12-19T16:14:18.518Z,18.79
2022-12-19T16:16:47.021Z,18.76
2022-12-19T16:19:24.504Z,18.80
2022-12-19T16:21:52.568Z,18.79
2022-12-19T16:24:20.500Z,18.76
2022-12-19T16:26:53.073Z,18.68
2022-12-19T16:29:21.774Z,18.64
2022-12-19T16:31:49.745Z,18.57
2022-12-19T16:34:19.354Z,18.51
2022-12-19T16:36:47.330Z,18.42
2022-12-19T16:39:15.593Z,18.33
2022-12-19T16:41:43.755Z,18.22
2022-12-19T16:44:19.543Z,18.14
2022-12-19T16:46:50.969Z,18.13
2022-12-19T16:49:19.927Z,18.09
2022-12-19T16:51:48.426Z,18.04
2022-12-19T16:54:16.687Z,18.02
2022-12-19T16:56:45.290Z,17.99
2022-12-19T16:59:16.745Z,17.96
2022-12-19T17:01:45.101Z,17.96
2022-12-19T17:04:14.813Z,17.98
2022-12-19T17:06:43.002Z,17.97
2022-12-19T17:09:13.686Z,17.99
2022-12-19T17:11:41.620Z,17.96
2022-12-19T17:14:12.646Z,17.95
2022-12-19T17:16:41.955Z,17.95
2022-12-19T17:19:10.389Z,17.95
2022-12-19T17:21:39.345Z,17.97
2022-12-19T17:24:10.450Z,17.99
2022-12-19T17:26:38.402Z,17.98
2022-12-19T17:29:07.526Z,17.98
2022-12-19T17:31:38.265Z,17.97
2022-12-19T17:34:09.395Z,17.97
2022-12-19T17:36:38.199Z,17.99
2022-12-19T17:39:11.964Z,17.96
2022-12-19T17:41:39.938Z,17.95
2022-12-19T17:44:07.840Z,17.93
2022-12-19T17:46:35.745Z,17.87
2022-12-19T17:49:03.723Z,17.88
2022-12-19T17:51:33.007Z,17.87
2022-12-19T17:54:00.978Z,17.86
2022-12-19T17:56:29.722Z,17.83
2022-12-19T17:58:57.598Z,17.82
2022-12-19T18:01:25.630Z,17.80
2022-12-19T18:03:54.010Z,17.82
2022-12-19T18:06:21.980Z,17.81
2022-12-19T18:08:51.264Z,17.80
2022-12-19T18:11:20.212Z,17.80
2022-12-19T18:13:48.141Z,17.79
2022-12-19T18:16:18.329Z,17.77
2022-12-19T18:18:46.649Z,17.79
2022-12-19T18:21:16.353Z,17.78
2022-12-19T18:23:44.277Z,17.76
2022-12-19T18:26:13.670Z,17.75
2022-12-19T18:28:41.673Z,17.74
2022-12-19T18:31:14.591Z,17.76
2022-12-19T18:33:43.364Z,17.75
2022-12-19T18:36:16.687Z,17.73
2022-12-19T18:38:44.967Z,17.72
2022-12-19T18:41:14.441Z,17.70
2022-12-19T18:43:42.427Z,17.68
2022-12-19T18:46:12.923Z,17.63
2022-12-19T18:48:40.979Z,17.58
2022-12-19T18:51:11.859Z,17.50
2022-12-19T18:53:39.897Z,17.44
2022-12-19T18:56:08.127Z,17.40
2022-12-19T18:58:37.406Z,17.42
2022-12-19T19:01:06.684Z,17.43
2022-12-19T19:03:36.429Z,17.43
2022-12-19T19:06:05.487Z,17.40
2022-12-19T19:08:34.190Z,17.35
2022-12-19T19:11:02.234Z,17.30
2022-12-19T19:13:31.483Z,17.28
2022-12-19T19:16:01.980Z,17.24
2022-12-19T19:18:33.761Z,17.22
2022-12-19T19:21:02.166Z,17.21
2022-12-19T19:23:33.559Z,17.18
2022-12-19T19:26:01.453Z,17.13
2022-12-19T19:28:29.373Z,17.14
2022-12-19T19:30:57.470Z,17.11
2022-12-19T19:33:28.177Z,17.06
2022-12-19T19:35:58.336Z,17.11
2022-12-19T19:38:26.392Z,17.11
2022-12-19T19:40:54.508Z,17.09
2022-12-19T19:43:22.423Z,17.09
2022-12-19T19:45:51.450Z,17.05
2022-12-19T19:48:19.415Z,17.06
2022-12-19T19:50:49.303Z,17.03
2022-12-19T19:53:17.499Z,16.99
2022-12-19T19:55:45.518Z,16.91
2022-12-19T19:58:13.693Z,16.87
2022-12-19T20:00:41.885Z,16.85
2022-12-19T20:03:12.810Z,16.77
2022-12-19T20:05:44.217Z,16.70
2022-12-19T20:08:13.865Z,16.60
2022-12-19T20:10:41.766Z,16.61
2022-12-19T20:13:11.287Z,16.56
2022-12-19T20:15:44.449Z,16.53
2022-12-19T20:18:15.950Z,16.44
2022-12-19T20:20:44.061Z,16.47
2022-12-19T20:23:13.703Z,16.44
2022-12-19T20:25:43.202Z,16.39
2022-12-19T20:28:11.230Z,16.39
2022-12-19T20:30:39.559Z,16.37
2022-12-19T20:33:07.912Z,16.36
2022-12-19T20:35:36.866Z,16.36
2022-12-19T20:38:05.009Z,16.38
2022-12-19T20:40:34.311Z,16.40
2022-12-19T20:43:02.255Z,16.43
2022-12-19T20:45:30.215Z,16.45
2022-12-19T20:47:58.219Z,16.45
2022-12-19T20:50:26.150Z,16.50
2022-12-19T20:52:54.091Z,16.52
2022-12-19T20:55:22.187Z,16.55
2022-12-19T20:57:51.429Z,16.57
2022-12-19T21:00:20.567Z,16.58
2022-12-19T21:03:25.802Z,16.59
2022-12-19T21:05:36.421Z,16.56
2022-12-19T21:08:04.462Z,16.56
2022-12-19T21:10:32.432Z,16.54
2022-12-19T21:13:01.795Z,16.54
2022-12-19T21:15:29.932Z,16.44
2022-12-19T21:17:57.782Z,16.27
2022-12-19T21:20:32.433Z,16.10
2022-12-19T21:23:02.031Z,16.01
2022-12-19T21:25:29.975Z,15.96
2022-12-19T21:27:57.880Z,15.93
2022-12-19T21:30:27.200Z,15.90
2022-12-19T21:32:55.636Z,15.85
2022-12-19T21:35:23.691Z,15.80
2022-12-19T21:37:52.100Z,15.78
2022-12-19T21:40:20.503Z,15.74
2022-12-19T21:42:48.501Z,15.72
2022-12-19T21:45:16.711Z,15.68
2022-12-19T21:47:46.032Z,15.61
2022-12-19T21:50:15.155Z,15.53
2022-12-19T21:52:43.161Z,15.48
2022-12-19T21:55:11.459Z,15.43
2022-12-19T21:57:40.140Z,15.37
2022-12-19T22:00:09.277Z,15.33
2022-12-19T22:02:37.386Z,15.32
2022-12-19T22:05:08.175Z,15.32
2022-12-19T22:07:36.099Z,15.34
2022-12-19T22:10:04.059Z,15.36
2022-12-19T22:12:31.968Z,15.38
2022-12-19T22:14:59.947Z,15.43
2022-12-19T22:17:27.947Z,15.48
2022-12-19T22:19:55.859Z,15.50
2022-12-19T22:22:25.176Z,15.49
2022-12-19T22:24:53.154Z,15.51
2022-12-19T22:27:21.629Z,15.51
2022-12-19T22:29:49.894Z,15.53
2022-12-19T22:32:17.826Z,15.62
2022-12-19T22:34:48.536Z,15.66
2022-12-19T22:37:16.794Z,15.70
2022-12-19T22:39:46.104Z,15.71
2022-12-19T22:42:13.977Z,15.74
2022-12-19T22:44:41.927Z,15.79
2022-12-19T22:47:09.868Z,15.82
2022-12-19T22:49:37.856Z,15.91
2022-12-19T22:52:06.207Z,15.96
2022-12-19T22:54:34.093Z,16.01
2022-12-19T22:57:03.352Z,16.03
2022-12-19T22:59:31.285Z,16.06
2022-12-19T23:01:59.355Z,16.10
2022-12-19T23:04:27.552Z,16.12
2022-12-19T23:06:55.461Z,16.10
2022-12-19T23:09:23.429Z,16.09
2022-12-19T23:11:51.441Z,16.09
2022-12-19T23:14:20.813Z,16.07
2022-12-19T23:16:48.812Z,16.04
2022-12-19T23:19:16.863Z,16.04
2022-12-19T23:21:44.800Z,16.03
2022-12-19T23:24:12.802Z,15.99
2022-12-19T23:26:40.711Z,15.92
2022-12-19T23:29:09.538Z,15.89
2022-12-19T23:31:40.441Z,15.86
2022-12-19T23:34:08.573Z,15.76
2022-12-19T23:39:24.356Z,15.71
2022-12-19T23:41:52.268Z,15.66
2022-12-19T23:44:20.372Z,15.61
2022-12-19T23:46:49.638Z,15.57
2022-12-19T23:49:17.608Z,15.60
2022-12-19T23:51:45.501Z,15.63
2022-12-19T23:54:13.438Z,15.68
2022-12-19T23:56:41.334Z,15.68
2022-12-19T23:59:09.235Z,15.70
